sensor_id;sensor_type;location;lat;lon;timestamp;temperature;humidity
1592;DHT22;789;51.612;7.510;2024-02-21T00:00:52;10.30;1.00
1592;DHT22;789;51.612;7.510;2024-02-21T00:03:19;10.30;1.00
1592;DHT22;789;51.612;7.510;2024-02-21T00:05:47;10.20;1.00
1592;DHT22;789;51.612;7.510;2024-02-21T00:08:14;10.10;1.00
1592;DHT22;789;51.612;7.510;2024-02-21T00:10:41;10.40;1.00
1592;DHT22;789;51.612;7.510;2024-02-21T00:13:07;10.20;1.00
1592;DHT22;789;51.612;7.510;2024-02-21T00:15:34;10.10;1.00
1592;DHT22;789;51.612;7.510;2024-02-21T00:18:01;10.10;1.00
1592;DHT22;789;51.612;7.510;2024-02-21T00:20:27;10.50;1.00
1592;DHT22;789;51.612;7.510;2024-02-21T00:22:55;10.10;1.00
1592;DHT22;789;51.612;7.510;2024-02-21T00:25:22;10.20;1.00
1592;DHT22;789;51.612;7.510;2024-02-21T00:27:49;10.20;1.00
1592;DHT22;789;51.612;7.510;2024-02-21T00:30:16;10.20;1.00
1592;DHT22;789;51.612;7.510;2024-02-21T00:32:42;10.10;1.00
1592;DHT22;789;51.612;7.510;2024-02-21T00:35:09;10.10;1.00
1592;DHT22;789;51.612;7.510;2024-02-21T00:37:36;10.10;1.00
1592;DHT22;789;51.612;7.510;2024-02-21T00:40:05;10.10;1.00
1592;DHT22;789;51.612;7.510;2024-02-21T00:42:32;10.10;1.00
1592;DHT22;789;51.612;7.510;2024-02-21T00:44:59;10.20;1.00
1592;DHT22;789;51.612;7.510;2024-02-21T00:47:26;10.20;1.00
1592;DHT22;789;51.612;7.510;2024-02-21T00:49:52;10.20;1.00
1592;DHT22;789;51.612;7.510;2024-02-21T00:52:19;10.20;1.00
1592;DHT22;789;51.612;7.510;2024-02-21T00:54:46;10.20;1.00
1592;DHT22;789;51.612;7.510;2024-02-21T00:57:15;10.20;1.00
1592;DHT22;789;51.612;7.510;2024-02-21T00:59:42;10.20;1.00
1592;DHT22;789;51.612;7.510;2024-02-21T01:02:09;10.20;1.00
1592;DHT22;789;51.612;7.510;2024-02-21T01:04:36;10.10;1.00
1592;DHT22;789;51.612;7.510;2024-02-21T01:07:03;10.10;1.00
1592;DHT22;789;51.612;7.510;2024-02-21T01:09:29;10.10;1.00
1592;DHT22;789;51.612;7.510;2024-02-21T01:11:56;10.10;1.00
1592;DHT22;789;51.612;7.510;2024-02-21T01:14:24;10.20;1.00
1592;DHT22;789;51.612;7.510;2024-02-21T01:16:51;10.10;1.00
1592;DHT22;789;51.612;7.510;2024-02-21T01:19:17;10.10;1.00
1592;DHT22;789;51.612;7.510;2024-02-21T01:21:44;10.20;1.00
1592;DHT22;789;51.612;7.510;2024-02-21T01:24:11;10.10;1.00
1592;DHT22;789;51.612;7.510;2024-02-21T01:26:37;10.10;1.00
1592;DHT22;789;51.612;7.510;2024-02-21T01:29:04;10.00;1.00
1592;DHT22;789;51.612;7.510;2024-02-21T01:31:32;10.00;1.00
1592;DHT22;789;51.612;7.510;2024-02-21T01:33:59;10.10;1.00
1592;DHT22;789;51.612;7.510;2024-02-21T01:36:26;10.10;1.00
1592;DHT22;789;51.612;7.510;2024-02-21T01:38:53;10.00;1.00
1592;DHT22;789;51.612;7.510;2024-02-21T01:41:19;10.00;1.00
1592;DHT22;789;51.612;7.510;2024-02-21T01:43:46;10.00;1.00
1592;DHT22;789;51.612;7.510;2024-02-21T01:46:14;10.00;1.00
1592;DHT22;789;51.612;7.510;2024-02-21T01:48:42;10.00;1.00
1592;DHT22;789;51.612;7.510;2024-02-21T01:51:12;10.00;1.00
1592;DHT22;789;51.612;7.510;2024-02-21T01:53:43;9.90;1.00
1592;DHT22;789;51.612;7.510;2024-02-21T01:56:10;10.00;1.00
1592;DHT22;789;51.612;7.510;2024-02-21T01:58:37;9.90;1.00
1592;DHT22;789;51.612;7.510;2024-02-21T02:01:05;9.90;1.00
1592;DHT22;789;51.612;7.510;2024-02-21T02:03:32;9.90;1.00
1592;DHT22;789;51.612;7.510;2024-02-21T02:06:00;10.00;1.00
1592;DHT22;789;51.612;7.510;2024-02-21T02:08:27;10.00;1.00
1592;DHT22;789;51.612;7.510;2024-02-21T02:10:54;10.00;1.00
1592;DHT22;789;51.612;7.510;2024-02-21T02:13:21;10.10;1.00
1592;DHT22;789;51.612;7.510;2024-02-21T02:15:48;10.10;1.00
1592;DHT22;789;51.612;7.510;2024-02-21T02:18:17;10.40;1.00
1592;DHT22;789;51.612;7.510;2024-02-21T02:20:44;10.10;1.00
1592;DHT22;789;51.612;7.510;2024-02-21T02:23:19;10.20;1.00
1592;DHT22;789;51.612;7.510;2024-02-21T02:25:46;10.20;1.00
1592;DHT22;789;51.612;7.510;2024-02-21T02:28:14;10.10;1.00
1592;DHT22;789;51.612;7.510;2024-02-21T02:30:41;10.10;1.00
1592;DHT22;789;51.612;7.510;2024-02-21T02:33:08;10.00;1.00
1592;DHT22;789;51.612;7.510;2024-02-21T02:35:35;10.00;1.00
1592;DHT22;789;51.612;7.510;2024-02-21T02:38:02;10.00;1.00
1592;DHT22;789;51.612;7.510;2024-02-21T02:40:31;10.00;1.00
1592;DHT22;789;51.612;7.510;2024-02-21T02:42:57;10.00;1.00
1592;DHT22;789;51.612;7.510;2024-02-21T02:45:25;10.00;1.00
1592;DHT22;789;51.612;7.510;2024-02-21T02:47:52;9.90;1.00
1592;DHT22;789;51.612;7.510;2024-02-21T02:50:19;9.90;1.00
1592;DHT22;789;51.612;7.510;2024-02-21T02:52:46;9.90;1.00
1592;DHT22;789;51.612;7.510;2024-02-21T02:55:13;9.90;1.00
1592;DHT22;789;51.612;7.510;2024-02-21T02:57:41;9.90;1.00
1592;DHT22;789;51.612;7.510;2024-02-21T03:00:08;9.80;1.00
1592;DHT22;789;51.612;7.510;2024-02-21T03:02:39;9.80;1.00
1592;DHT22;789;51.612;7.510;2024-02-21T03:05:12;9.90;1.00
1592;DHT22;789;51.612;7.510;2024-02-21T03:07:40;9.80;1.00
1592;DHT22;789;51.612;7.510;2024-02-21T03:10:07;9.80;1.00
1592;DHT22;789;51.612;7.510;2024-02-21T03:12:34;9.80;1.00
1592;DHT22;789;51.612;7.510;2024-02-21T03:15:02;9.80;1.00
1592;DHT22;789;51.612;7.510;2024-02-21T03:17:29;9.70;1.00
1592;DHT22;789;51.612;7.510;2024-02-21T03:19:57;9.70;1.00
1592;DHT22;789;51.612;7.510;2024-02-21T03:22:24;9.70;1.00
1592;DHT22;789;51.612;7.510;2024-02-21T03:24:51;9.90;1.00
1592;DHT22;789;51.612;7.510;2024-02-21T03:27:18;9.80;1.00
1592;DHT22;789;51.612;7.510;2024-02-21T03:29:44;9.70;1.00
1592;DHT22;789;51.612;7.510;2024-02-21T03:32:12;9.90;1.00
1592;DHT22;789;51.612;7.510;2024-02-21T03:34:39;9.70;1.00
1592;DHT22;789;51.612;7.510;2024-02-21T03:37:06;9.70;1.00
1592;DHT22;789;51.612;7.510;2024-02-21T03:39:32;9.70;1.00
1592;DHT22;789;51.612;7.510;2024-02-21T03:41:59;9.70;1.00
1592;DHT22;789;51.612;7.510;2024-02-21T03:44:30;9.70;1.00
1592;DHT22;789;51.612;7.510;2024-02-21T03:46:56;9.70;1.00
1592;DHT22;789;51.612;7.510;2024-02-21T03:49:24;9.70;1.00
1592;DHT22;789;51.612;7.510;2024-02-21T03:51:51;9.80;1.00
1592;DHT22;789;51.612;7.510;2024-02-21T03:54:19;9.80;1.00
1592;DHT22;789;51.612;7.510;2024-02-21T03:56:46;9.70;1.00
1592;DHT22;789;51.612;7.510;2024-02-21T03:59:14;9.70;1.00
1592;DHT22;789;51.612;7.510;2024-02-21T04:01:41;9.70;1.00
1592;DHT22;789;51.612;7.510;2024-02-21T04:04:07;9.80;1.00
1592;DHT22;789;51.612;7.510;2024-02-21T04:06:35;9.80;1.00
1592;DHT22;789;51.612;7.510;2024-02-21T04:09:02;9.90;1.00
1592;DHT22;789;51.612;7.510;2024-02-21T04:11:30;9.90;1.00
1592;DHT22;789;51.612;7.510;2024-02-21T04:13:56;9.90;1.00
1592;DHT22;789;51.612;7.510;2024-02-21T04:16:23;10.00;1.00
1592;DHT22;789;51.612;7.510;2024-02-21T04:18:50;10.00;1.00
1592;DHT22;789;51.612;7.510;2024-02-21T04:21:17;10.00;1.00
1592;DHT22;789;51.612;7.510;2024-02-21T04:23:46;10.50;1.00
1592;DHT22;789;51.612;7.510;2024-02-21T04:26:12;10.10;1.00
1592;DHT22;789;51.612;7.510;2024-02-21T04:28:39;10.10;1.00
1592;DHT22;789;51.612;7.510;2024-02-21T04:31:06;10.10;1.00
1592;DHT22;789;51.612;7.510;2024-02-21T04:33:32;10.10;1.00
1592;DHT22;789;51.612;7.510;2024-02-21T04:35:59;10.00;1.00
1592;DHT22;789;51.612;7.510;2024-02-21T04:38:26;10.10;1.00
1592;DHT22;789;51.612;7.510;2024-02-21T04:40:55;10.00;1.00
1592;DHT22;789;51.612;7.510;2024-02-21T04:43:23;10.40;1.00
1592;DHT22;789;51.612;7.510;2024-02-21T04:45:50;10.00;1.00
1592;DHT22;789;51.612;7.510;2024-02-21T04:48:19;10.00;1.00
1592;DHT22;789;51.612;7.510;2024-02-21T04:50:45;10.00;1.00
1592;DHT22;789;51.612;7.510;2024-02-21T04:53:12;10.10;1.00
1592;DHT22;789;51.612;7.510;2024-02-21T04:55:39;10.10;1.00
1592;DHT22;789;51.612;7.510;2024-02-21T04:58:07;10.10;1.00
1592;DHT22;789;51.612;7.510;2024-02-21T05:00:34;10.00;1.00
1592;DHT22;789;51.612;7.510;2024-02-21T05:03:01;10.00;1.00
1592;DHT22;789;51.612;7.510;2024-02-21T05:05:28;9.90;1.00
1592;DHT22;789;51.612;7.510;2024-02-21T05:07:54;10.10;1.00
1592;DHT22;789;51.612;7.510;2024-02-21T05:10:21;9.80;1.00
1592;DHT22;789;51.612;7.510;2024-02-21T05:12:48;10.10;1.00
1592;DHT22;789;51.612;7.510;2024-02-21T05:15:16;9.80;1.00
1592;DHT22;789;51.612;7.510;2024-02-21T05:17:43;10.10;1.00
1592;DHT22;789;51.612;7.510;2024-02-21T05:20:10;9.80;1.00
1592;DHT22;789;51.612;7.510;2024-02-21T05:22:37;9.80;1.00
1592;DHT22;789;51.612;7.510;2024-02-21T05:25:05;9.80;1.00
1592;DHT22;789;51.612;7.510;2024-02-21T05:27:31;9.90;1.00
1592;DHT22;789;51.612;7.510;2024-02-21T05:29:59;9.90;1.00
1592;DHT22;789;51.612;7.510;2024-02-21T05:32:27;10.00;1.00
1592;DHT22;789;51.612;7.510;2024-02-21T05:34:54;9.90;1.00
1592;DHT22;789;51.612;7.510;2024-02-21T05:37:20;9.90;1.00
1592;DHT22;789;51.612;7.510;2024-02-21T05:39:48;9.90;1.00
1592;DHT22;789;51.612;7.510;2024-02-21T05:42:14;10.30;1.00
1592;DHT22;789;51.612;7.510;2024-02-21T05:44:41;9.90;1.00
1592;DHT22;789;51.612;7.510;2024-02-21T05:47:08;10.00;1.00
1592;DHT22;789;51.612;7.510;2024-02-21T05:49:37;10.10;1.00
1592;DHT22;789;51.612;7.510;2024-02-21T05:52:04;10.10;1.00
1592;DHT22;789;51.612;7.510;2024-02-21T05:54:31;10.10;1.00
1592;DHT22;789;51.612;7.510;2024-02-21T05:56:59;10.00;1.00
1592;DHT22;789;51.612;7.510;2024-02-21T05:59:25;10.10;1.00
1592;DHT22;789;51.612;7.510;2024-02-21T06:01:56;10.00;1.00
1592;DHT22;789;51.612;7.510;2024-02-21T06:04:23;10.00;1.00
1592;DHT22;789;51.612;7.510;2024-02-21T06:06:51;10.00;1.00
1592;DHT22;789;51.612;7.510;2024-02-21T06:09:18;10.00;1.00
1592;DHT22;789;51.612;7.510;2024-02-21T06:11:45;10.00;1.00
1592;DHT22;789;51.612;7.510;2024-02-21T06:14:12;9.90;1.00
1592;DHT22;789;51.612;7.510;2024-02-21T06:16:39;9.90;1.00
1592;DHT22;789;51.612;7.510;2024-02-21T06:19:05;9.90;1.00
1592;DHT22;789;51.612;7.510;2024-02-21T06:21:32;9.80;1.00
1592;DHT22;789;51.612;7.510;2024-02-21T06:24:00;9.90;1.00
1592;DHT22;789;51.612;7.510;2024-02-21T06:26:27;9.90;1.00
1592;DHT22;789;51.612;7.510;2024-02-21T06:28:54;9.80;1.00
1592;DHT22;789;51.612;7.510;2024-02-21T06:31:21;9.90;1.00
1592;DHT22;789;51.612;7.510;2024-02-21T06:33:48;9.90;1.00
1592;DHT22;789;51.612;7.510;2024-02-21T06:36:14;10.20;1.00
1592;DHT22;789;51.612;7.510;2024-02-21T06:38:41;9.80;1.00
1592;DHT22;789;51.612;7.510;2024-02-21T06:41:16;9.90;1.00
1592;DHT22;789;51.612;7.510;2024-02-21T06:43:44;9.90;1.00
1592;DHT22;789;51.612;7.510;2024-02-21T06:46:11;9.90;1.00
1592;DHT22;789;51.612;7.510;2024-02-21T06:48:38;9.80;1.00
1592;DHT22;789;51.612;7.510;2024-02-21T06:51:05;9.80;1.00
1592;DHT22;789;51.612;7.510;2024-02-21T06:53:32;9.70;1.00
1592;DHT22;789;51.612;7.510;2024-02-21T06:56:01;9.70;1.00
1592;DHT22;789;51.612;7.510;2024-02-21T06:58:29;9.80;1.00
1592;DHT22;789;51.612;7.510;2024-02-21T07:00:56;9.90;1.00
1592;DHT22;789;51.612;7.510;2024-02-21T07:03:23;9.90;1.00
1592;DHT22;789;51.612;7.510;2024-02-21T07:05:50;9.90;1.00
1592;DHT22;789;51.612;7.510;2024-02-21T07:08:17;10.40;1.00
1592;DHT22;789;51.612;7.510;2024-02-21T07:10:43;10.00;1.00
1592;DHT22;789;51.612;7.510;2024-02-21T07:13:10;10.00;1.00
1592;DHT22;789;51.612;7.510;2024-02-21T07:15:38;10.00;1.00
1592;DHT22;789;51.612;7.510;2024-02-21T07:18:05;10.10;1.00
1592;DHT22;789;51.612;7.510;2024-02-21T07:20:31;10.20;1.00
1592;DHT22;789;51.612;7.510;2024-02-21T07:22:59;10.20;1.00
1592;DHT22;789;51.612;7.510;2024-02-21T07:25:25;10.30;1.00
1592;DHT22;789;51.612;7.510;2024-02-21T07:27:52;10.30;1.00
1592;DHT22;789;51.612;7.510;2024-02-21T07:30:19;10.20;1.00
1592;DHT22;789;51.612;7.510;2024-02-21T07:32:49;10.30;1.00
1592;DHT22;789;51.612;7.510;2024-02-21T07:35:15;10.20;1.00
1592;DHT22;789;51.612;7.510;2024-02-21T07:37:42;10.20;1.00
1592;DHT22;789;51.612;7.510;2024-02-21T07:40:12;10.20;1.00
1592;DHT22;789;51.612;7.510;2024-02-21T07:42:39;10.20;1.00
1592;DHT22;789;51.612;7.510;2024-02-21T07:45:07;10.10;1.00
1592;DHT22;789;51.612;7.510;2024-02-21T07:47:34;10.10;1.00
1592;DHT22;789;51.612;7.510;2024-02-21T07:50:02;10.10;1.00
1592;DHT22;789;51.612;7.510;2024-02-21T07:52:29;10.20;1.00
1592;DHT22;789;51.612;7.510;2024-02-21T07:54:56;10.20;1.00
1592;DHT22;789;51.612;7.510;2024-02-21T07:57:23;10.30;1.00
1592;DHT22;789;51.612;7.510;2024-02-21T07:59:50;10.70;1.00
1592;DHT22;789;51.612;7.510;2024-02-21T08:02:17;10.40;1.00
1592;DHT22;789;51.612;7.510;2024-02-21T08:04:44;10.40;1.00
1592;DHT22;789;51.612;7.510;2024-02-21T08:07:12;10.40;1.00
1592;DHT22;789;51.612;7.510;2024-02-21T08:09:40;10.50;1.00
1592;DHT22;789;51.612;7.510;2024-02-21T08:12:07;10.50;1.00
1592;DHT22;789;51.612;7.510;2024-02-21T08:14:33;10.50;1.00
1592;DHT22;789;51.612;7.510;2024-02-21T08:17:00;10.50;1.00
1592;DHT22;789;51.612;7.510;2024-02-21T08:19:27;10.60;1.00
1592;DHT22;789;51.612;7.510;2024-02-21T08:21:53;10.50;1.00
1592;DHT22;789;51.612;7.510;2024-02-21T08:24:21;11.00;1.00
1592;DHT22;789;51.612;7.510;2024-02-21T08:26:49;10.60;1.00
1592;DHT22;789;51.612;7.510;2024-02-21T08:29:15;10.70;1.00
1592;DHT22;789;51.612;7.510;2024-02-21T08:31:42;10.60;1.00
1592;DHT22;789;51.612;7.510;2024-02-21T08:34:09;10.60;1.00
1592;DHT22;789;51.612;7.510;2024-02-21T08:36:36;10.60;1.00
1592;DHT22;789;51.612;7.510;2024-02-21T08:39:03;10.50;1.00
1592;DHT22;789;51.612;7.510;2024-02-21T08:41:32;10.50;1.00
1592;DHT22;789;51.612;7.510;2024-02-21T08:43:59;10.50;1.00
1592;DHT22;789;51.612;7.510;2024-02-21T08:46:26;10.70;1.00
1592;DHT22;789;51.612;7.510;2024-02-21T08:48:53;10.70;1.00
1592;DHT22;789;51.612;7.510;2024-02-21T08:51:20;10.80;1.00
1592;DHT22;789;51.612;7.510;2024-02-21T08:53:48;10.90;1.00
1592;DHT22;789;51.612;7.510;2024-02-21T08:56:15;10.80;1.00
1592;DHT22;789;51.612;7.510;2024-02-21T08:58:43;11.00;1.00
1592;DHT22;789;51.612;7.510;2024-02-21T09:01:10;11.00;1.00
1592;DHT22;789;51.612;7.510;2024-02-21T09:03:37;11.10;1.00
1592;DHT22;789;51.612;7.510;2024-02-21T09:06:04;11.10;1.00
1592;DHT22;789;51.612;7.510;2024-02-21T09:08:31;11.20;1.00
1592;DHT22;789;51.612;7.510;2024-02-21T09:10:59;11.30;1.00
1592;DHT22;789;51.612;7.510;2024-02-21T09:13:26;11.40;1.00
1592;DHT22;789;51.612;7.510;2024-02-21T09:15:54;11.30;1.00
1592;DHT22;789;51.612;7.510;2024-02-21T09:18:21;11.30;1.00
1592;DHT22;789;51.612;7.510;2024-02-21T09:20:48;11.10;1.00
1592;DHT22;789;51.612;7.510;2024-02-21T09:23:14;11.30;1.00
1592;DHT22;789;51.612;7.510;2024-02-21T09:25:42;11.20;1.00
1592;DHT22;789;51.612;7.510;2024-02-21T09:28:08;11.00;1.00
1592;DHT22;789;51.612;7.510;2024-02-21T09:30:35;11.00;1.00
1592;DHT22;789;51.612;7.510;2024-02-21T09:33:04;10.90;1.00
1592;DHT22;789;51.612;7.510;2024-02-21T09:35:32;10.90;1.00
1592;DHT22;789;51.612;7.510;2024-02-21T09:37:59;11.10;1.00
1592;DHT22;789;51.612;7.510;2024-02-21T09:40:26;10.80;1.00
1592;DHT22;789;51.612;7.510;2024-02-21T09:42:59;10.80;1.00
1592;DHT22;789;51.612;7.510;2024-02-21T09:45:29;10.70;1.00
1592;DHT22;789;51.612;7.510;2024-02-21T09:48:19;11.20;1.00
1592;DHT22;789;51.612;7.510;2024-02-21T09:50:51;10.70;1.00
1592;DHT22;789;51.612;7.510;2024-02-21T09:53:19;10.70;1.00
1592;DHT22;789;51.612;7.510;2024-02-21T09:55:47;10.60;1.00
1592;DHT22;789;51.612;7.510;2024-02-21T09:58:15;10.60;1.00
1592;DHT22;789;51.612;7.510;2024-02-21T10:00:42;10.60;1.00
1592;DHT22;789;51.612;7.510;2024-02-21T10:03:09;10.60;1.00
1592;DHT22;789;51.612;7.510;2024-02-21T10:05:37;10.60;1.00
1592;DHT22;789;51.612;7.510;2024-02-21T10:08:05;10.60;1.00
1592;DHT22;789;51.612;7.510;2024-02-21T10:10:41;10.50;1.00
1592;DHT22;789;51.612;7.510;2024-02-21T10:13:09;10.50;1.00
1592;DHT22;789;51.612;7.510;2024-02-21T10:15:36;10.50;1.00
1592;DHT22;789;51.612;7.510;2024-02-21T10:18:03;11.10;1.00
1592;DHT22;789;51.612;7.510;2024-02-21T10:20:31;10.50;1.00
1592;DHT22;789;51.612;7.510;2024-02-21T10:23:03;10.80;1.00
1592;DHT22;789;51.612;7.510;2024-02-21T10:25:34;10.30;1.00
1592;DHT22;789;51.612;7.510;2024-02-21T10:28:02;10.70;1.00
1592;DHT22;789;51.612;7.510;2024-02-21T10:30:29;10.40;1.00
1592;DHT22;789;51.612;7.510;2024-02-21T10:32:56;10.40;1.00
1592;DHT22;789;51.612;7.510;2024-02-21T10:35:26;10.40;1.00
1592;DHT22;789;51.612;7.510;2024-02-21T10:37:54;10.40;1.00
1592;DHT22;789;51.612;7.510;2024-02-21T10:40:24;10.50;1.00
1592;DHT22;789;51.612;7.510;2024-02-21T10:42:56;10.50;1.00
1592;DHT22;789;51.612;7.510;2024-02-21T10:45:27;10.50;1.00
1592;DHT22;789;51.612;7.510;2024-02-21T10:47:56;10.60;1.00
1592;DHT22;789;51.612;7.510;2024-02-21T10:50:31;10.50;1.00
1592;DHT22;789;51.612;7.510;2024-02-21T10:53:05;11.10;1.00
1592;DHT22;789;51.612;7.510;2024-02-21T10:55:38;10.50;1.00
1592;DHT22;789;51.612;7.510;2024-02-21T10:58:08;11.00;1.00
1592;DHT22;789;51.612;7.510;2024-02-21T11:00:37;10.60;1.00
1592;DHT22;789;51.612;7.510;2024-02-21T11:03:04;10.80;1.00
1592;DHT22;789;51.612;7.510;2024-02-21T11:05:32;11.20;1.00
1592;DHT22;789;51.612;7.510;2024-02-21T11:08:00;10.80;1.00
1592;DHT22;789;51.612;7.510;2024-02-21T11:10:27;10.80;1.00
1592;DHT22;789;51.612;7.510;2024-02-21T11:13:05;10.70;1.00
1592;DHT22;789;51.612;7.510;2024-02-21T11:15:33;10.80;1.00
1592;DHT22;789;51.612;7.510;2024-02-21T11:18:00;10.70;1.00
1592;DHT22;789;51.612;7.510;2024-02-21T11:20:34;10.90;1.00
1592;DHT22;789;51.612;7.510;2024-02-21T11:23:01;11.00;1.00
1592;DHT22;789;51.612;7.510;2024-02-21T11:25:28;11.10;1.00
1592;DHT22;789;51.612;7.510;2024-02-21T11:28:01;11.00;1.00
1592;DHT22;789;51.612;7.510;2024-02-21T11:30:30;11.00;1.00
1592;DHT22;789;51.612;7.510;2024-02-21T11:33:02;11.00;1.00
1592;DHT22;789;51.612;7.510;2024-02-21T11:35:33;11.00;1.00
1592;DHT22;789;51.612;7.510;2024-02-21T11:38:10;11.00;1.00
1592;DHT22;789;51.612;7.510;2024-02-21T11:40:40;11.00;1.00
1592;DHT22;789;51.612;7.510;2024-02-21T11:43:08;11.00;1.00
1592;DHT22;789;51.612;7.510;2024-02-21T11:45:35;11.10;1.00
1592;DHT22;789;51.612;7.510;2024-02-21T11:48:02;11.20;1.00
1592;DHT22;789;51.612;7.510;2024-02-21T11:50:31;11.40;1.00
1592;DHT22;789;51.612;7.510;2024-02-21T11:52:57;11.50;1.00
1592;DHT22;789;51.612;7.510;2024-02-21T11:55:24;11.60;1.00
1592;DHT22;789;51.612;7.510;2024-02-21T11:57:51;11.50;1.00
1592;DHT22;789;51.612;7.510;2024-02-21T12:00:20;11.50;1.00
1592;DHT22;789;51.612;7.510;2024-02-21T12:02:47;11.40;1.00
1592;DHT22;789;51.612;7.510;2024-02-21T12:05:16;11.40;1.00
1592;DHT22;789;51.612;7.510;2024-02-21T12:07:43;11.40;1.00
1592;DHT22;789;51.612;7.510;2024-02-21T12:10:10;12.00;1.00
1592;DHT22;789;51.612;7.510;2024-02-21T12:12:37;11.40;1.00
1592;DHT22;789;51.612;7.510;2024-02-21T12:15:07;11.40;1.00
1592;DHT22;789;51.612;7.510;2024-02-21T12:17:36;11.40;1.00
1592;DHT22;789;51.612;7.510;2024-02-21T12:20:04;11.40;1.00
1592;DHT22;789;51.612;7.510;2024-02-21T12:22:35;11.40;1.00
1592;DHT22;789;51.612;7.510;2024-02-21T12:25:03;11.70;1.00
1592;DHT22;789;51.612;7.510;2024-02-21T12:27:31;11.50;1.00
1592;DHT22;789;51.612;7.510;2024-02-21T12:29:57;12.00;1.00
1592;DHT22;789;51.612;7.510;2024-02-21T12:32:24;11.60;1.00
1592;DHT22;789;51.612;7.510;2024-02-21T12:34:52;11.60;1.00
1592;DHT22;789;51.612;7.510;2024-02-21T12:37:19;11.50;1.00
1592;DHT22;789;51.612;7.510;2024-02-21T12:39:46;11.60;1.00
1592;DHT22;789;51.612;7.510;2024-02-21T12:42:13;11.80;1.00
1592;DHT22;789;51.612;7.510;2024-02-21T12:44:39;11.50;1.00
1592;DHT22;789;51.612;7.510;2024-02-21T12:47:08;11.50;1.00
1592;DHT22;789;51.612;7.510;2024-02-21T12:49:35;11.40;1.00
1592;DHT22;789;51.612;7.510;2024-02-21T12:52:03;11.40;1.00
1592;DHT22;789;51.612;7.510;2024-02-21T12:54:30;11.50;1.00
1592;DHT22;789;51.612;7.510;2024-02-21T12:56:57;11.50;1.00
1592;DHT22;789;51.612;7.510;2024-02-21T12:59:28;11.60;1.00
1592;DHT22;789;51.612;7.510;2024-02-21T13:01:56;11.60;1.00
1592;DHT22;789;51.612;7.510;2024-02-21T13:04:23;11.70;1.00
1592;DHT22;789;51.612;7.510;2024-02-21T13:06:49;11.70;1.00
1592;DHT22;789;51.612;7.510;2024-02-21T13:09:20;11.80;1.00
1592;DHT22;789;51.612;7.510;2024-02-21T13:11:47;11.90;1.00
1592;DHT22;789;51.612;7.510;2024-02-21T13:14:14;11.90;1.00
1592;DHT22;789;51.612;7.510;2024-02-21T13:16:41;11.80;1.00
1592;DHT22;789;51.612;7.510;2024-02-21T13:19:08;11.70;1.00
1592;DHT22;789;51.612;7.510;2024-02-21T13:21:35;11.80;1.00
1592;DHT22;789;51.612;7.510;2024-02-21T13:24:03;11.80;1.00
1592;DHT22;789;51.612;7.510;2024-02-21T13:26:31;12.00;1.00
1592;DHT22;789;51.612;7.510;2024-02-21T13:28:58;12.10;1.00
1592;DHT22;789;51.612;7.510;2024-02-21T13:31:25;12.20;1.00
1592;DHT22;789;51.612;7.510;2024-02-21T13:33:51;12.20;1.00
1592;DHT22;789;51.612;7.510;2024-02-21T13:36:18;12.20;1.00
1592;DHT22;789;51.612;7.510;2024-02-21T13:38:45;12.20;1.00
1592;DHT22;789;51.612;7.510;2024-02-21T13:41:12;12.70;1.00
1592;DHT22;789;51.612;7.510;2024-02-21T13:43:40;12.20;1.00
1592;DHT22;789;51.612;7.510;2024-02-21T13:46:07;12.30;1.00
1592;DHT22;789;51.612;7.510;2024-02-21T13:48:37;12.40;1.00
1592;DHT22;789;51.612;7.510;2024-02-21T13:51:04;12.70;1.00
1592;DHT22;789;51.612;7.510;2024-02-21T13:53:31;12.90;1.00
1592;DHT22;789;51.612;7.510;2024-02-21T13:55:59;13.10;1.00
1592;DHT22;789;51.612;7.510;2024-02-21T13:58:26;13.40;1.00
1592;DHT22;789;51.612;7.510;2024-02-21T14:00:54;13.30;1.00
1592;DHT22;789;51.612;7.510;2024-02-21T14:03:21;13.30;1.00
1592;DHT22;789;51.612;7.510;2024-02-21T14:05:48;13.30;1.00
1592;DHT22;789;51.612;7.510;2024-02-21T14:08:16;13.20;1.00
1592;DHT22;789;51.612;7.510;2024-02-21T14:10:42;13.00;1.00
1592;DHT22;789;51.612;7.510;2024-02-21T14:13:09;12.90;1.00
1592;DHT22;789;51.612;7.510;2024-02-21T14:15:37;12.80;1.00
1592;DHT22;789;51.612;7.510;2024-02-21T14:18:07;13.30;1.00
1592;DHT22;789;51.612;7.510;2024-02-21T14:20:35;12.70;1.00
1592;DHT22;789;51.612;7.510;2024-02-21T14:23:01;12.60;1.00
1592;DHT22;789;51.612;7.510;2024-02-21T14:25:32;12.60;1.00
1592;DHT22;789;51.612;7.510;2024-02-21T14:27:58;12.20;1.00
1592;DHT22;789;51.612;7.510;2024-02-21T14:30:26;12.20;1.00
1592;DHT22;789;51.612;7.510;2024-02-21T14:32:52;12.60;1.00
1592;DHT22;789;51.612;7.510;2024-02-21T14:35:21;12.20;1.00
1592;DHT22;789;51.612;7.510;2024-02-21T14:37:47;12.10;1.00
1592;DHT22;789;51.612;7.510;2024-02-21T14:40:14;12.10;1.00
1592;DHT22;789;51.612;7.510;2024-02-21T14:42:41;12.00;1.00
1592;DHT22;789;51.612;7.510;2024-02-21T14:45:09;11.90;1.00
1592;DHT22;789;51.612;7.510;2024-02-21T14:47:35;12.00;1.00
1592;DHT22;789;51.612;7.510;2024-02-21T14:50:03;12.50;1.00
1592;DHT22;789;51.612;7.510;2024-02-21T14:52:31;12.10;1.00
1592;DHT22;789;51.612;7.510;2024-02-21T14:54:59;12.10;1.00
1592;DHT22;789;51.612;7.510;2024-02-21T14:57:28;12.00;1.00
1592;DHT22;789;51.612;7.510;2024-02-21T14:59:55;12.10;1.00
1592;DHT22;789;51.612;7.510;2024-02-21T15:02:24;12.70;1.00
1592;DHT22;789;51.612;7.510;2024-02-21T15:04:53;12.30;1.00
1592;DHT22;789;51.612;7.510;2024-02-21T15:07:20;12.30;1.00
1592;DHT22;789;51.612;7.510;2024-02-21T15:09:50;12.30;1.00
1592;DHT22;789;51.612;7.510;2024-02-21T15:12:17;12.40;1.00
1592;DHT22;789;51.612;7.510;2024-02-21T15:14:44;12.20;1.00
1592;DHT22;789;51.612;7.510;2024-02-21T15:17:11;12.20;1.00
1592;DHT22;789;51.612;7.510;2024-02-21T15:19:38;12.40;1.00
1592;DHT22;789;51.612;7.510;2024-02-21T15:22:09;12.00;1.00
1592;DHT22;789;51.612;7.510;2024-02-21T15:24:37;12.00;1.00
1592;DHT22;789;51.612;7.510;2024-02-21T15:27:05;11.90;1.00
1592;DHT22;789;51.612;7.510;2024-02-21T15:29:32;11.90;1.00
1592;DHT22;789;51.612;7.510;2024-02-21T15:31:59;12.20;1.00
1592;DHT22;789;51.612;7.510;2024-02-21T15:34:26;12.00;1.00
1592;DHT22;789;51.612;7.510;2024-02-21T15:36:52;12.00;1.00
1592;DHT22;789;51.612;7.510;2024-02-21T15:39:19;12.30;1.00
1592;DHT22;789;51.612;7.510;2024-02-21T15:41:46;11.70;1.00
1592;DHT22;789;51.612;7.510;2024-02-21T15:44:14;11.70;1.00
1592;DHT22;789;51.612;7.510;2024-02-21T15:46:41;11.50;1.00
1592;DHT22;789;51.612;7.510;2024-02-21T15:49:07;11.70;1.00
1592;DHT22;789;51.612;7.510;2024-02-21T15:51:34;12.20;1.00
1592;DHT22;789;51.612;7.510;2024-02-21T15:54:01;12.10;1.00
1592;DHT22;789;51.612;7.510;2024-02-21T15:56:28;11.90;1.00
1592;DHT22;789;51.612;7.510;2024-02-21T15:58:55;11.60;1.00
1592;DHT22;789;51.612;7.510;2024-02-21T16:01:23;11.60;1.00
1592;DHT22;789;51.612;7.510;2024-02-21T16:03:51;11.70;1.00
1592;DHT22;789;51.612;7.510;2024-02-21T16:06:19;11.50;1.00
1592;DHT22;789;51.612;7.510;2024-02-21T16:08:46;11.50;1.00
1592;DHT22;789;51.612;7.510;2024-02-21T16:11:15;11.50;1.00
1592;DHT22;789;51.612;7.510;2024-02-21T16:13:42;12.00;1.00
1592;DHT22;789;51.612;7.510;2024-02-21T16:16:14;11.50;1.00
1592;DHT22;789;51.612;7.510;2024-02-21T16:18:42;11.50;1.00
1592;DHT22;789;51.612;7.510;2024-02-21T16:21:10;11.50;1.00
1592;DHT22;789;51.612;7.510;2024-02-21T16:23:38;11.60;1.00
1592;DHT22;789;51.612;7.510;2024-02-21T16:26:05;11.50;1.00
1592;DHT22;789;51.612;7.510;2024-02-21T16:28:32;12.00;1.00
1592;DHT22;789;51.612;7.510;2024-02-21T16:30:58;11.50;1.00
1592;DHT22;789;51.612;7.510;2024-02-21T16:33:25;11.50;1.00
1592;DHT22;789;51.612;7.510;2024-02-21T16:35:53;11.40;1.00
1592;DHT22;789;51.612;7.510;2024-02-21T16:38:21;11.50;1.00